createdAt,value
2022-08-09T00:01:43.075Z,23.35
2022-08-09T00:04:33.894Z,23.23
2022-08-09T00:07:03.986Z,23.12
2022-08-09T00:09:39.266Z,23.09
2022-08-09T00:12:06.824Z,22.99
2022-08-09T00:14:37.805Z,22.96
2022-08-09T00:17:06.460Z,23.03
2022-08-09T00:19:34.152Z,23.03
2022-08-09T00:22:03.480Z,22.94
2022-08-09T00:24:32.266Z,22.91
2022-08-09T00:27:00.350Z,22.92
2022-08-09T00:29:39.146Z,22.94
2022-08-09T00:32:25.292Z,22.90
2022-08-09T00:35:03.414Z,22.73
2022-08-09T00:37:32.477Z,22.55
2022-08-09T00:40:12.324Z,22.73
2022-08-09T00:44:10.786Z,22.69
2022-08-09T00:45:31.106Z,22.63
2022-08-09T00:48:04.304Z,22.64
2022-08-09T00:50:33.258Z,22.67
2022-08-09T00:53:00.619Z,22.61
2022-08-09T00:56:04.808Z,22.57
2022-08-09T00:58:27.831Z,22.70
2022-08-09T01:00:58.968Z,22.62
2022-08-09T01:04:05.027Z,22.67
2022-08-09T01:06:54.357Z,22.70
2022-08-09T01:09:49.262Z,22.63
2022-08-09T01:12:35.757Z,22.53
2022-08-09T01:15:16.603Z,22.44
2022-08-09T01:18:05.467Z,22.53
2022-08-09T01:20:53.381Z,22.38
2022-08-09T01:24:02.874Z,22.40
2022-08-09T01:26:53.724Z,22.37
2022-08-09T01:29:41.025Z,22.42
2022-08-09T01:32:31.430Z,22.35
2022-08-09T01:35:28.593Z,22.39
2022-08-09T01:38:09.609Z,22.39
2022-08-09T01:40:53.044Z,22.38
2022-08-09T01:43:50.200Z,22.40
2022-08-09T01:46:28.443Z,22.44
2022-08-09T01:49:00.251Z,22.36
2022-08-09T01:51:39.394Z,22.25
2022-08-09T01:54:13.339Z,22.17
2022-08-09T01:56:51.332Z,22.30
2022-08-09T01:59:20.796Z,22.36
2022-08-09T02:01:59.833Z,22.37
2022-08-09T02:04:30.060Z,22.37
2022-08-09T02:07:08.726Z,22.32
2022-08-09T02:09:59.801Z,22.32
2022-08-09T02:12:28.578Z,22.25
2022-08-09T02:14:59.408Z,22.39
2022-08-09T02:18:01.381Z,22.32
2022-08-09T02:20:26.486Z,22.31
2022-08-09T02:23:09.549Z,22.31
2022-08-09T02:25:41.859Z,22.32
2022-08-09T02:28:17.808Z,22.25
2022-08-09T02:30:48.873Z,22.30
2022-08-09T02:33:23.150Z,22.17
2022-08-09T02:36:13.887Z,22.21
2022-08-09T02:38:47.788Z,22.16
2022-08-09T02:41:42.186Z,22.22
2022-08-09T02:44:13.706Z,22.18
2022-08-09T02:46:58.676Z,22.17
2022-08-09T02:49:38.746Z,22.13
2022-08-09T02:52:14.545Z,22.16
2022-08-09T02:54:53.839Z,22.17
2022-08-09T02:57:23.791Z,22.04
2022-08-09T03:00:21.278Z,22.02
2022-08-09T03:02:46.364Z,22.06
2022-08-09T03:05:29.136Z,22.07
2022-08-09T03:07:57.372Z,21.90
2022-08-09T03:10:26.294Z,21.93
2022-08-09T03:12:54.823Z,21.88
2022-08-09T03:15:23.624Z,21.78
2022-08-09T03:17:57.830Z,21.75
2022-08-09T03:20:29.493Z,21.89
2022-08-09T03:23:06.528Z,21.77
2022-08-09T03:25:57.778Z,21.78
2022-08-09T03:28:30.461Z,21.77
2022-08-09T03:30:58.870Z,21.89
2022-08-09T03:33:26.847Z,21.80
2022-08-09T03:36:16.350Z,21.81
2022-08-09T03:38:44.924Z,21.73
2022-08-09T03:41:15.236Z,21.69
2022-08-09T03:44:03.265Z,21.80
2022-08-09T03:46:32.926Z,21.76
2022-08-09T03:49:04.069Z,21.78
2022-08-09T03:51:57.589Z,21.64
2022-08-09T03:54:31.384Z,21.73
2022-08-09T03:57:02.162Z,21.74
2022-08-09T03:59:43.162Z,21.73
2022-08-09T04:02:27.249Z,21.74
2022-08-09T04:04:58.421Z,21.65
2022-08-09T04:07:47.488Z,21.70
2022-08-09T04:10:20.489Z,21.62
2022-08-09T04:12:51.998Z,21.65
2022-08-09T04:15:40.523Z,21.71
2022-08-09T04:18:16.447Z,21.67
2022-08-09T04:20:48.913Z,21.70
2022-08-09T04:23:17.556Z,21.72
2022-08-09T04:25:51.707Z,21.73
2022-08-09T04:28:34.315Z,21.66
2022-08-09T04:31:09.002Z,21.77
2022-08-09T04:33:52.471Z,21.87
2022-08-09T04:36:27.444Z,21.83
2022-08-09T04:38:56.809Z,21.86
2022-08-09T04:41:32.343Z,21.85
2022-08-09T04:44:09.547Z,21.91
2022-08-09T04:47:00.194Z,22.00
2022-08-09T04:49:52.397Z,21.90
2022-08-09T04:52:27.758Z,22.07
2022-08-09T04:54:57.488Z,22.09
2022-08-09T04:57:27.077Z,22.15
2022-08-09T05:00:14.595Z,22.22
2022-08-09T05:02:52.472Z,22.24
2022-08-09T05:05:32.139Z,22.27
2022-08-09T05:08:09.012Z,22.16
2022-08-09T05:10:36.592Z,22.22
2022-08-09T05:13:04.295Z,22.36
2022-08-09T05:15:39.298Z,22.41
2022-08-09T05:18:38.289Z,22.37
2022-08-09T05:21:10.105Z,22.51
2022-08-09T05:23:59.598Z,22.50
2022-08-09T05:26:35.998Z,22.40
2022-08-09T05:29:17.530Z,22.49
2022-08-09T05:31:56.720Z,22.44
2022-08-09T05:34:31.268Z,22.59
2022-08-09T05:37:04.822Z,22.63
2022-08-09T05:39:36.087Z,22.59
2022-08-09T05:42:20.579Z,22.71
2022-08-09T05:44:53.054Z,22.64
2022-08-09T05:47:22.837Z,22.66
2022-08-09T05:50:25.347Z,22.58
2022-08-09T05:52:42.959Z,22.77
2022-08-09T05:55:20.288Z,22.89
2022-08-09T05:57:51.036Z,22.97
2022-08-09T06:00:24.277Z,23.14
2022-08-09T06:02:54.630Z,23.34
2022-08-09T06:05:50.066Z,23.49
2022-08-09T06:08:19.678Z,23.45
2022-08-09T06:10:53.367Z,23.58
2022-08-09T06:13:21.768Z,23.74
2022-08-09T06:15:51.531Z,23.93
2022-08-09T06:18:24.859Z,24.25
2022-08-09T06:20:57.133Z,24.31
2022-08-09T06:23:57.115Z,24.64
2022-08-09T06:26:20.346Z,24.78
2022-08-09T06:28:59.614Z,24.95
2022-08-09T06:31:31.501Z,25.26
2022-08-09T06:34:08.049Z,25.36
2022-08-09T06:36:37.461Z,25.52
2022-08-09T06:39:12.451Z,25.75
2022-08-09T06:42:08.909Z,26.01
2022-08-09T06:44:30.439Z,26.06
2022-08-09T06:46:58.100Z,26.40
2022-08-09T06:49:44.623Z,26.37
2022-08-09T06:52:15.799Z,26.61
2022-08-09T06:54:43.815Z,26.78
2022-08-09T06:57:11.998Z,27.00
2022-08-09T07:00:54.931Z,27.10
2022-08-09T07:02:30.903Z,27.34
2022-08-09T07:05:00.344Z,27.47
2022-08-09T07:08:00.961Z,27.77
2022-08-09T07:10:29.741Z,27.87
2022-08-09T07:13:00.127Z,28.18
2022-08-09T07:15:53.722Z,28.12
2022-08-09T07:18:34.168Z,28.13
2022-08-09T07:21:07.752Z,28.38
2022-08-09T07:23:36.266Z,28.31
2022-08-09T07:26:04.342Z,28.54
2022-08-09T07:28:34.857Z,28.73
2022-08-09T07:31:07.027Z,28.83
2022-08-09T07:33:53.203Z,29.07
2022-08-09T07:36:22.177Z,28.97
2022-08-09T07:38:58.183Z,29.27
2022-08-09T07:41:28.033Z,29.17
2022-08-09T07:44:01.366Z,29.42
2022-08-09T07:46:28.748Z,29.28
2022-08-09T07:48:59.007Z,29.40
2022-08-09T07:52:04.980Z,29.42
2022-08-09T07:54:19.219Z,29.46
2022-08-09T07:56:55.983Z,29.61
2022-08-09T07:59:34.772Z,29.87
2022-08-09T08:02:10.996Z,29.78
2022-08-09T08:04:48.648Z,29.96
2022-08-09T08:08:45.158Z,30.03
2022-08-09T08:10:10.893Z,29.65
2022-08-09T08:12:43.690Z,29.89
2022-08-09T08:15:18.202Z,29.93
2022-08-09T08:17:58.331Z,30.19
2022-08-09T08:20:30.817Z,30.22
2022-08-09T08:23:06.477Z,30.39
2022-08-09T08:25:49.751Z,30.52
2022-08-09T08:28:25.725Z,30.19
2022-08-09T08:31:10.460Z,30.15
2022-08-09T08:33:53.015Z,30.39
2022-08-09T08:36:29.763Z,30.31
2022-08-09T08:38:59.709Z,30.38
2022-08-09T08:41:41.757Z,30.20
2022-08-09T08:44:27.052Z,30.23
2022-08-09T08:46:58.404Z,30.40
2022-08-09T08:49:38.637Z,30.58
2022-08-09T08:52:35.061Z,30.54
2022-08-09T08:55:05.684Z,30.55
2022-08-09T08:57:35.091Z,30.78
2022-08-09T09:00:12.857Z,30.81
2022-08-09T09:02:52.519Z,30.84
2022-08-09T09:05:57.891Z,30.70
2022-08-09T09:08:30.537Z,30.92
2022-08-09T09:11:02.962Z,31.06
2022-08-09T09:13:54.761Z,31.12
2022-08-09T09:16:30.855Z,31.30
2022-08-09T09:19:40.769Z,31.13
2022-08-09T09:22:03.946Z,31.08
2022-08-09T09:24:45.719Z,31.33
2022-08-09T09:28:06.597Z,31.34
2022-08-09T09:30:35.961Z,31.45
2022-08-09T09:33:16.140Z,31.49
2022-08-09T09:36:01.027Z,31.58
2022-08-09T09:38:44.214Z,31.54
2022-08-09T09:41:24.137Z,31.60
2022-08-09T09:44:10.615Z,31.59
2022-08-09T09:46:50.463Z,31.68
2022-08-09T09:49:32.101Z,31.77
2022-08-09T09:52:16.766Z,31.56
2022-08-09T09:55:24.110Z,31.60
2022-08-09T09:58:17.405Z,31.89
2022-08-09T10:00:53.875Z,32.12
2022-08-09T10:03:43.410Z,32.18
2022-08-09T10:06:12.850Z,32.41
2022-08-09T10:08:42.391Z,32.51
2022-08-09T10:14:30.712Z,32.67
2022-08-09T10:17:39.609Z,32.86
2022-08-09T10:20:00.114Z,32.86
2022-08-09T10:22:33.065Z,32.97
2022-08-09T10:25:11.213Z,33.16
2022-08-09T10:27:54.555Z,33.23
2022-08-09T10:33:29.775Z,33.36
2022-08-09T10:36:05.358Z,33.47
2022-08-09T10:38:56.749Z,33.32
2022-08-09T10:41:25.976Z,33.35
2022-08-09T10:43:59.331Z,33.35
2022-08-09T10:46:54.775Z,33.36
2022-08-09T10:49:50.246Z,32.90
2022-08-09T10:52:45.852Z,32.80
2022-08-09T10:55:20.978Z,32.68
2022-08-09T10:57:51.807Z,32.52
2022-08-09T11:00:33.633Z,32.52
2022-08-09T11:03:17.957Z,32.16
2022-08-09T11:06:21.016Z,32.13
2022-08-09T11:08:53.958Z,31.91
2022-08-09T11:11:23.500Z,31.87
2022-08-09T11:14:28.772Z,31.68
2022-08-09T11:16:59.161Z,31.70
2022-08-09T11:20:19.858Z,31.47
2022-08-09T11:22:56.795Z,31.59
2022-08-09T11:25:44.680Z,31.40
2022-08-09T11:28:38.624Z,31.44
2022-08-09T11:31:49.403Z,31.54
2022-08-09T11:34:39.407Z,31.58
2022-08-09T11:37:08.323Z,31.76
2022-08-09T11:40:00.478Z,31.67
2022-08-09T11:42:39.599Z,31.74
2022-08-09T11:45:21.903Z,31.74
2022-08-09T11:47:51.704Z,31.74
2022-08-09T11:50:53.539Z,31.68
2022-08-09T11:53:21.455Z,31.64
2022-08-09T11:56:03.011Z,31.67
2022-08-09T11:58:33.013Z,31.37
2022-08-09T12:01:08.904Z,31.44
2022-08-09T12:03:56.091Z,31.48
2022-08-09T12:06:32.631Z,31.27
2022-08-09T12:09:06.028Z,31.13
2022-08-09T12:12:02.502Z,31.21
2022-08-09T12:14:40.851Z,31.41
2022-08-09T12:17:28.068Z,31.16
2022-08-09T12:20:21.504Z,31.08
2022-08-09T12:23:00.607Z,31.02
2022-08-09T12:25:37.140Z,30.98
2022-08-09T12:29:10.125Z,31.10
2022-08-09T12:31:01.361Z,31.21
2022-08-09T12:33:51.478Z,30.86
2022-08-09T12:36:32.238Z,30.99
2022-08-09T12:39:01.689Z,30.98
2022-08-09T12:41:38.210Z,31.04
2022-08-09T12:44:10.236Z,30.98
2022-08-09T12:46:48.782Z,31.02
2022-08-09T12:49:18.149Z,30.93
2022-08-09T12:52:02.525Z,31.06
2022-08-09T12:56:11.902Z,31.01
2022-08-09T12:57:46.474Z,31.07
2022-08-09T13:00:17.512Z,31.18
2022-08-09T13:03:00.572Z,31.12
2022-08-09T13:05:35.451Z,30.92
2022-08-09T13:08:21.059Z,30.65
2022-08-09T13:11:23.096Z,30.89
2022-08-09T13:14:43.892Z,30.93
2022-08-09T13:16:49.488Z,30.90
2022-08-09T13:20:07.293Z,30.90
2022-08-09T13:22:37.824Z,30.90
2022-08-09T13:25:14.278Z,30.79
2022-08-09T13:27:48.636Z,30.72
2022-08-09T13:30:51.225Z,30.69
2022-08-09T13:33:22.441Z,30.79
2022-08-09T13:36:24.272Z,30.74
2022-08-09T13:38:57.277Z,30.87
2022-08-09T13:41:55.144Z,31.08
2022-08-09T13:44:17.049Z,30.99
2022-08-09T13:47:25.551Z,31.05
2022-08-09T13:49:37.960Z,31.11
2022-08-09T13:52:09.249Z,31.21
2022-08-09T13:54:42.871Z,31.18
2022-08-09T13:57:36.269Z,31.17
2022-08-09T14:00:17.319Z,31.14
2022-08-09T14:03:04.047Z,31.22
2022-08-09T14:05:59.912Z,31.16
2022-08-09T14:08:26.910Z,31.08
2022-08-09T14:10:56.033Z,30.96
2022-08-09T14:13:28.094Z,31.08
2022-08-09T14:16:15.467Z,30.86
2022-08-09T14:18:49.428Z,30.86
2022-08-09T14:21:20.346Z,30.90
2022-08-09T14:23:54.672Z,30.96
2022-08-09T14:26:32.720Z,30.90
2022-08-09T14:29:08.355Z,30.92
2022-08-09T14:31:53.684Z,31.01
2022-08-09T14:34:32.261Z,31.00
2022-08-09T14:37:02.398Z,30.96
2022-08-09T14:39:46.238Z,31.07
2022-08-09T14:42:29.120Z,30.98
2022-08-09T14:46:45.901Z,31.15
2022-08-09T14:47:58.248Z,31.10
2022-08-09T14:50:32.548Z,31.19
2022-08-09T14:53:02.786Z,31.23
2022-08-09T14:55:32.173Z,31.26
2022-08-09T14:58:03.323Z,31.33
2022-08-09T15:00:33.334Z,31.13
2022-08-09T15:03:10.987Z,31.17
2022-08-09T15:05:39.139Z,31.27
2022-08-09T15:08:10.429Z,31.17
2022-08-09T15:10:38.268Z,31.20
2022-08-09T15:13:06.037Z,31.20
2022-08-09T15:15:39.255Z,31.07
2022-08-09T15:18:12.321Z,31.19
2022-08-09T15:21:58.699Z,31.17
2022-08-09T15:24:02.029Z,31.29
2022-08-09T15:26:30.895Z,31.20
2022-08-09T15:29:02.446Z,31.33
2022-08-09T15:31:41.559Z,31.25
2022-08-09T15:34:31.497Z,31.18
2022-08-09T15:36:58.280Z,31.34
2022-08-09T15:39:43.755Z,31.30
2022-08-09T15:42:14.797Z,31.19
2022-08-09T15:44:42.413Z,31.28
2022-08-09T15:47:14.284Z,31.17
2022-08-09T15:50:04.393Z,31.13
2022-08-09T15:52:37.488Z,31.21
2022-08-09T15:55:06.997Z,31.19
2022-08-09T15:57:44.015Z,31.23
2022-08-09T16:00:25.564Z,31.19
2022-08-09T16:02:56.170Z,31.13
2022-08-09T16:05:47.313Z,31.20
2022-08-09T16:08:30.726Z,31.07
2022-08-09T16:11:02.633Z,30.96
2022-08-09T16:14:04.272Z,31.08
2022-08-09T16:16:19.211Z,31.12
2022-08-09T16:18:47.651Z,31.06
2022-08-09T16:21:17.739Z,31.17
2022-08-09T16:24:02.050Z,31.21
2022-08-09T16:26:34.201Z,31.31
2022-08-09T16:29:11.264Z,31.22
2022-08-09T16:32:18.206Z,31.15
2022-08-09T16:34:54.475Z,31.07
2022-08-09T16:37:20.231Z,31.14
2022-08-09T16:40:09.799Z,30.81
2022-08-09T16:42:38.341Z,30.81
2022-08-09T16:45:07.003Z,30.86
2022-08-09T16:48:39.648Z,30.76
2022-08-09T16:50:31.299Z,30.62
2022-08-09T16:53:01.784Z,30.61
2022-08-09T16:55:37.517Z,30.65
2022-08-09T16:58:18.047Z,30.71
2022-08-09T17:00:46.562Z,30.60
2022-08-09T17:03:21.906Z,30.65
2022-08-09T17:06:07.858Z,30.61
2022-08-09T17:08:42.840Z,30.47
2022-08-09T17:11:15.804Z,30.40
2022-08-09T17:13:45.183Z,30.46
2022-08-09T17:16:12.692Z,30.45
2022-08-09T17:18:40.320Z,30.37
2022-08-09T17:21:13.208Z,30.26
2022-08-09T17:24:27.654Z,30.28
2022-08-09T17:26:37.894Z,30.22
2022-08-09T17:29:06.104Z,30.38
2022-08-09T17:31:49.182Z,30.26
2022-08-09T17:35:00.931Z,30.07
2022-08-09T17:37:04.809Z,30.04
2022-08-09T17:39:53.287Z,29.95
2022-08-09T17:42:41.811Z,30.01
2022-08-09T17:45:16.120Z,30.09
2022-08-09T17:48:02.840Z,30.07
2022-08-09T17:50:36.897Z,30.01
2022-08-09T17:53:10.341Z,30.02
2022-08-09T17:55:55.753Z,29.88
2022-08-09T17:58:27.117Z,29.84
2022-08-09T18:00:56.514Z,29.83
2022-08-09T18:03:28.648Z,29.88
2022-08-09T18:05:57.910Z,29.90
2022-08-09T18:08:28.659Z,29.89
2022-08-09T18:11:01.668Z,29.86
2022-08-09T18:13:38.791Z,29.84
2022-08-09T18:16:30.547Z,29.66
2022-08-09T18:19:03.841Z,29.62
2022-08-09T18:21:41.306Z,29.65
2022-08-09T18:24:14.530Z,29.56
2022-08-09T18:26:46.069Z,29.47
2022-08-09T18:30:42.021Z,29.43
2022-08-09T18:32:04.959Z,29.51
2022-08-09T18:34:35.306Z,29.50
2022-08-09T18:37:04.133Z,29.41
2022-08-09T18:39:32.483Z,29.34
2022-08-09T18:42:05.372Z,29.27
2022-08-09T18:44:36.242Z,29.20
2022-08-09T18:47:09.901Z,29.15
2022-08-09T18:49:46.233Z,29.13
2022-08-09T18:52:15.833Z,29.16
2022-08-09T18:54:52.176Z,29.05
2022-08-09T18:57:22.147Z,29.02
2022-08-09T18:59:56.364Z,28.98
2022-08-09T19:02:32.224Z,28.91
2022-08-09T19:05:20.405Z,28.90
2022-08-09T19:08:04.443Z,29.07
2022-08-09T19:10:39.152Z,28.61
2022-08-09T19:13:20.954Z,28.52
2022-08-09T19:15:55.820Z,28.32
2022-08-09T19:18:32.890Z,28.24
2022-08-09T19:21:02.514Z,28.14
2022-08-09T19:24:32.753Z,28.25
2022-08-09T19:26:17.716Z,28.07
2022-08-09T19:28:48.829Z,28.01
2022-08-09T19:31:16.849Z,27.93
2022-08-09T19:33:44.670Z,27.85
2022-08-09T19:36:13.638Z,27.82
2022-08-09T19:38:41.130Z,27.78
2022-08-09T19:41:10.714Z,27.80
2022-08-09T19:43:57.821Z,27.73
2022-08-09T19:46:34.915Z,27.60
2022-08-09T19:50:07.060Z,27.66
2022-08-09T19:51:55.302Z,27.67
2022-08-09T19:54:26.863Z,27.72
2022-08-09T19:56:55.253Z,27.60
2022-08-09T19:59:57.039Z,27.71
2022-08-09T20:03:23.814Z,27.71
2022-08-09T20:05:01.835Z,27.47
2022-08-09T20:07:33.826Z,27.50
2022-08-09T20:10:22.166Z,27.32
2022-08-09T20:12:55.558Z,27.12
2022-08-09T20:16:34.930Z,27.34
2022-08-09T20:18:11.809Z,27.21
2022-08-09T20:20:40.023Z,27.03
2022-08-09T20:23:12.131Z,27.16
2022-08-09T20:25:51.640Z,27.16
2022-08-09T20:28:27.542Z,27.11
2022-08-09T20:30:59.625Z,26.95
2022-08-09T20:33:41.227Z,27.22
2022-08-09T20:36:12.481Z,27.17
2022-08-09T20:39:28.059Z,27.15
2022-08-09T20:41:35.248Z,27.07
2022-08-09T20:44:09.936Z,27.01
2022-08-09T20:46:43.303Z,27.00
2022-08-09T20:49:13.680Z,27.09
2022-08-09T20:51:42.233Z,27.19
2022-08-09T20:54:16.512Z,27.24
2022-08-09T20:56:53.486Z,27.13
2022-08-09T20:59:24.907Z,27.19
2022-08-09T21:02:11.823Z,27.21
2022-08-09T21:05:52.593Z,27.12
2022-08-09T21:07:38.652Z,26.96
2022-08-09T21:10:08.970Z,26.87
2022-08-09T21:12:38.557Z,26.81
2022-08-09T21:15:12.674Z,26.89
2022-08-09T21:18:20.756Z,26.89
2022-08-09T21:20:32.711Z,26.89
2022-08-09T21:23:03.459Z,26.78
2022-08-09T21:25:56.035Z,26.96
2022-08-09T21:28:34.454Z,26.87
2022-08-09T21:31:13.734Z,26.97
2022-08-09T21:33:51.683Z,27.03
2022-08-09T21:36:28.165Z,27.01
2022-08-09T21:38:58.814Z,27.09
2022-08-09T21:42:04.118Z,27.14
2022-08-09T21:44:33.068Z,26.99
2022-08-09T21:47:04.503Z,26.90
2022-08-09T21:49:40.126Z,26.77
2022-08-09T21:52:16.695Z,26.94
2022-08-09T21:54:46.553Z,26.75
2022-08-09T21:57:37.236Z,26.78
2022-08-09T22:00:12.463Z,26.83
2022-08-09T22:02:42.815Z,26.89
2022-08-09T22:05:22.781Z,26.93
2022-08-09T22:07:53.294Z,26.99
2022-08-09T22:10:23.119Z,26.76
2022-08-09T22:12:52.209Z,26.78
2022-08-09T22:15:23.209Z,26.94
2022-08-09T22:18:00.873Z,26.78
2022-08-09T22:20:31.284Z,26.70
2022-08-09T22:23:02.338Z,26.61
2022-08-09T22:26:07.089Z,26.52
2022-08-09T22:28:21.013Z,26.53
2022-08-09T22:30:57.411Z,26.62
2022-08-09T22:33:25.526Z,26.34
2022-08-09T22:36:05.397Z,26.45
2022-08-09T22:38:36.627Z,26.47
2022-08-09T22:41:05.438Z,26.30
2022-08-09T22:44:01.523Z,26.24
2022-08-09T22:48:16.602Z,26.01
2022-08-09T22:49:10.381Z,26.12
2022-08-09T22:51:39.503Z,25.95
2022-08-09T22:54:21.137Z,25.89
2022-08-09T22:56:56.537Z,25.78
2022-08-09T22:59:58.413Z,25.83
2022-08-09T23:02:15.186Z,25.86
2022-08-09T23:04:53.318Z,26.00
2022-08-09T23:08:22.492Z,25.96
2022-08-09T23:10:30.274Z,25.90
2022-08-09T23:12:58.753Z,26.00
2022-08-09T23:15:27.065Z,25.96
2022-08-09T23:17:54.902Z,25.80
2022-08-09T23:20:23.314Z,25.70
2022-08-09T23:22:50.679Z,25.77
2022-08-09T23:25:18.020Z,25.89
2022-08-09T23:27:56.631Z,25.93
2022-08-09T23:30:33.014Z,25.92
2022-08-09T23:33:00.690Z,25.95
2022-08-09T23:35:28.270Z,25.58
2022-08-09T23:37:55.901Z,25.62
2022-08-09T23:40:23.524Z,25.68
2022-08-09T23:42:50.960Z,25.49
2022-08-09T23:45:37.837Z,25.53
2022-08-09T23:48:08.911Z,25.60
2022-08-09T23:50:36.701Z,25.31
2022-08-09T23:53:04.089Z,25.17
2022-08-09T23:55:34.698Z,25.31
2022-08-09T23:58:09.263Z,25.25
